createdAt,value
2022-12-14T06:03:09.238Z,-3.99
2022-12-14T06:06:13.623Z,-4.06
2022-12-14T06:09:16.840Z,-3.95
2022-12-14T06:12:19.746Z,-3.99
2022-12-14T06:15:22.408Z,-4.03
2022-12-14T06:18:25.501Z,-4.00
2022-12-14T06:21:31.045Z,-3.96
2022-12-14T06:24:34.273Z,-3.84
2022-12-14T06:27:36.756Z,-3.97
2022-12-14T06:30:39.859Z,-3.90
2022-12-14T06:33:42.832Z,-3.85
2022-12-14T06:36:48.601Z,-3.80
2022-12-14T06:39:54.553Z,-3.70
2022-12-14T06:42:57.779Z,-3.72
2022-12-14T06:46:00.568Z,-3.73
2022-12-14T06:49:08.208Z,-3.62
2022-12-14T06:52:11.484Z,-3.61
2022-12-14T06:55:17.966Z,-3.65
2022-12-14T06:58:21.609Z,-3.61
2022-12-14T07:01:26.474Z,-3.67
2022-12-14T07:04:32.712Z,-3.50
2022-12-14T07:07:39.050Z,-3.51
2022-12-14T07:10:42.422Z,-3.55
2022-12-14T07:13:45.961Z,-3.57
2022-12-14T07:16:52.778Z,-3.44
2022-12-14T07:19:59.209Z,-3.42
2022-12-14T07:23:02.277Z,-3.43
2022-12-14T07:26:14.078Z,-3.36
2022-12-14T07:29:17.569Z,-3.35
2022-12-14T07:32:21.107Z,-3.34
2022-12-14T07:35:25.312Z,-3.31
2022-12-14T07:38:33.688Z,-3.24
2022-12-14T07:41:36.914Z,-3.15
2022-12-14T07:44:43.664Z,-3.18
2022-12-14T07:47:52.615Z,-3.10
2022-12-14T07:51:07.997Z,-3.10
2022-12-14T07:54:13.348Z,-3.08
2022-12-14T07:57:17.262Z,-3.14
2022-12-14T08:00:24.289Z,-3.16
2022-12-14T08:03:28.208Z,-3.20
2022-12-14T08:06:34.913Z,-3.12
2022-12-14T08:09:39.334Z,-3.11
2022-12-14T08:12:45.072Z,-3.05
2022-12-14T08:15:50.676Z,-3.02
2022-12-14T08:19:02.680Z,-3.04
2022-12-14T11:04:03.187Z,-1.87
2022-12-14T11:11:21.219Z,-1.91
2022-12-14T11:14:27.119Z,-1.94
2022-12-14T13:01:35.763Z,-1.46
2022-12-14T13:04:53.094Z,-1.65
2022-12-14T13:08:12.968Z,-1.43
2022-12-14T13:11:31.249Z,-1.64
2022-12-14T13:14:41.451Z,-1.53
2022-12-14T13:18:02.162Z,-1.41
2022-12-14T13:21:38.647Z,-1.41
2022-12-14T13:24:58.840Z,-1.39
2022-12-14T13:28:33.399Z,-1.41
2022-12-14T13:31:52.726Z,-1.34
2022-12-14T13:35:27.624Z,-1.43
2022-12-14T13:39:01.794Z,-1.53
2022-12-14T19:33:27.305Z,-1.97
2022-12-14T19:36:30.614Z,-1.88
2022-12-14T19:50:55.741Z,-1.85
2022-12-14T19:54:01.400Z,-1.78
2022-12-14T19:57:04.284Z,-1.91
2022-12-14T20:00:09.325Z,-1.88
2022-12-14T20:03:12.656Z,-1.81
2022-12-14T20:06:15.653Z,-1.72
2022-12-14T20:09:18.856Z,-1.83
2022-12-14T20:12:21.884Z,-1.72
2022-12-14T20:15:24.481Z,-1.79
2022-12-14T20:18:28.689Z,-1.85
2022-12-14T20:21:34.067Z,-1.88
2022-12-14T20:24:37.138Z,-1.91
2022-12-14T20:27:41.006Z,-1.91
2022-12-14T20:30:46.325Z,-1.93
2022-12-14T20:33:50.045Z,-1.88
2022-12-14T20:36:53.016Z,-1.85
2022-12-14T20:39:55.650Z,-1.77
2022-12-14T20:42:58.518Z,-1.71
2022-12-14T20:46:01.142Z,-1.78
2022-12-14T20:49:13.093Z,-1.77
2022-12-14T20:52:15.619Z,-1.88
2022-12-14T20:55:18.496Z,-1.82
2022-12-14T20:58:21.357Z,-1.77
2022-12-14T21:01:25.899Z,-1.79
2022-12-14T21:04:28.668Z,-1.84
2022-12-14T21:07:32.828Z,-1.79
2022-12-14T21:10:36.355Z,-1.77
2022-12-14T21:13:39.217Z,-1.82
2022-12-14T21:16:42.779Z,-1.72
2022-12-14T21:19:45.749Z,-1.75
2022-12-14T21:22:48.397Z,-2.06
2022-12-14T21:25:51.263Z,-1.81
2022-12-14T21:28:55.249Z,-1.83
2022-12-14T21:31:58.172Z,-1.84
2022-12-14T21:35:00.804Z,-1.69
2022-12-14T21:38:03.670Z,-2.03
2022-12-14T21:41:25.787Z,-1.82
2022-12-14T21:44:34.901Z,-1.63
2022-12-14T21:47:37.446Z,-1.72
2022-12-14T21:50:42.451Z,-1.92
2022-12-14T21:53:59.305Z,-2.11
2022-12-14T21:57:20.984Z,-2.07
2022-12-14T22:00:23.717Z,-2.08
2022-12-14T22:03:26.559Z,-1.90
2022-12-14T22:06:29.640Z,-1.75
2022-12-14T22:09:32.516Z,-1.98
2022-12-14T22:12:35.116Z,-1.63
2022-12-14T22:15:40.971Z,-1.57
2022-12-14T22:18:43.521Z,-1.48
2022-12-14T22:21:46.791Z,-1.98
2022-12-14T22:24:51.221Z,-1.84
2022-12-14T22:27:54.349Z,-1.53
2022-12-14T22:31:02.811Z,-1.50
2022-12-14T22:34:06.876Z,-1.45
2022-12-14T22:37:09.553Z,-1.41
2022-12-14T22:40:12.724Z,-1.52
2022-12-14T22:43:15.479Z,-1.65
2022-12-14T22:46:20.018Z,-1.49
2022-12-14T22:49:22.765Z,-1.43
2022-12-14T22:52:25.819Z,-1.59
2022-12-14T22:55:36.001Z,-1.46
2022-12-14T22:58:41.020Z,-1.43
2022-12-14T23:01:49.941Z,-1.45
2022-12-14T23:04:53.466Z,-1.51
